sensor_id;sensor_type;location;lat;lon;timestamp;pressure;altitude;pressure_sealevel;temperature
79498;BMP180;75160;53.138;18.020;2024-03-02T00:00:40;100421.60;;;
79498;BMP180;75160;53.138;18.020;2024-03-02T00:02:02;100421.00;;;
79498;BMP180;75160;53.138;18.020;2024-03-02T00:03:04;100419.00;;;
79498;BMP180;75160;53.138;18.020;2024-03-02T00:04:07;100418.20;;;
79498;BMP180;75160;53.138;18.020;2024-03-02T00:05:18;100422.00;;;
79498;BMP180;75160;53.138;18.020;2024-03-02T00:06:21;100423.60;;;
79498;BMP180;75160;53.138;18.020;2024-03-02T00:07:25;100422.20;;;
79498;BMP180;75160;53.138;18.020;2024-03-02T00:08:27;100416.80;;;
79498;BMP180;75160;53.138;18.020;2024-03-02T00:09:29;100419.80;;;
79498;BMP180;75160;53.138;18.020;2024-03-02T00:10:39;100421.40;;;
79498;BMP180;75160;53.138;18.020;2024-03-02T00:11:41;100420.20;;;
79498;BMP180;75160;53.138;18.020;2024-03-02T00:12:47;100418.00;;;
79498;BMP180;75160;53.138;18.020;2024-03-02T00:13:53;100416.60;;;
79498;BMP180;75160;53.138;18.020;2024-03-02T00:14:55;100419.60;;;
79498;BMP180;75160;53.138;18.020;2024-03-02T00:15:58;100419.00;;;
79498;BMP180;75160;53.138;18.020;2024-03-02T00:17:00;100423.40;;;
79498;BMP180;75160;53.138;18.020;2024-03-02T00:18:02;100422.20;;;
79498;BMP180;75160;53.138;18.020;2024-03-02T00:19:06;100425.60;;;
79498;BMP180;75160;53.138;18.020;2024-03-02T00:20:10;100427.00;;;
79498;BMP180;75160;53.138;18.020;2024-03-02T00:21:12;100427.20;;;
79498;BMP180;75160;53.138;18.020;2024-03-02T00:22:17;100425.80;;;
79498;BMP180;75160;53.138;18.020;2024-03-02T00:23:19;100427.20;;;
79498;BMP180;75160;53.138;18.020;2024-03-02T00:24:34;100424.40;;;
79498;BMP180;75160;53.138;18.020;2024-03-02T00:25:49;100424.40;;;
79498;BMP180;75160;53.138;18.020;2024-03-02T00:26:51;100423.60;;;
79498;BMP180;75160;53.138;18.020;2024-03-02T00:27:53;100418.80;;;
79498;BMP180;75160;53.138;18.020;2024-03-02T00:28:56;100411.80;;;
79498;BMP180;75160;53.138;18.020;2024-03-02T00:31:04;100412.00;;;
79498;BMP180;75160;53.138;18.020;2024-03-02T00:31:45;100411.80;;;
79498;BMP180;75160;53.138;18.020;2024-03-02T00:32:48;100414.80;;;
79498;BMP180;75160;53.138;18.020;2024-03-02T00:33:50;100411.00;;;
79498;BMP180;75160;53.138;18.020;2024-03-02T00:34:52;100410.40;;;
79498;BMP180;75160;53.138;18.020;2024-03-02T00:35:55;100409.00;;;
79498;BMP180;75160;53.138;18.020;2024-03-02T00:36:58;100406.20;;;
79498;BMP180;75160;53.138;18.020;2024-03-02T00:38:07;100410.00;;;
79498;BMP180;75160;53.138;18.020;2024-03-02T00:39:12;100414.00;;;
79498;BMP180;75160;53.138;18.020;2024-03-02T00:40:17;100410.20;;;
79498;BMP180;75160;53.138;18.020;2024-03-02T00:41:30;100405.60;;;
79498;BMP180;75160;53.138;18.020;2024-03-02T00:42:32;100402.20;;;
79498;BMP180;75160;53.138;18.020;2024-03-02T00:44:02;100408.60;;;
79498;BMP180;75160;53.138;18.020;2024-03-02T00:45:10;100409.40;;;
79498;BMP180;75160;53.138;18.020;2024-03-02T00:46:14;100407.80;;;
79498;BMP180;75160;53.138;18.020;2024-03-02T00:47:16;100408.40;;;
79498;BMP180;75160;53.138;18.020;2024-03-02T00:48:18;100409.20;;;
79498;BMP180;75160;53.138;18.020;2024-03-02T00:49:23;100410.00;;;
79498;BMP180;75160;53.138;18.020;2024-03-02T00:50:24;100411.20;;;
79498;BMP180;75160;53.138;18.020;2024-03-02T00:51:30;100410.00;;;
79498;BMP180;75160;53.138;18.020;2024-03-02T00:52:32;100408.20;;;
79498;BMP180;75160;53.138;18.020;2024-03-02T00:53:34;100410.40;;;
79498;BMP180;75160;53.138;18.020;2024-03-02T00:54:36;100409.20;;;
79498;BMP180;75160;53.138;18.020;2024-03-02T00:55:39;100408.60;;;
79498;BMP180;75160;53.138;18.020;2024-03-02T00:56:47;100407.40;;;
79498;BMP180;75160;53.138;18.020;2024-03-02T00:57:50;100412.00;;;
79498;BMP180;75160;53.138;18.020;2024-03-02T00:58:52;100411.00;;;
79498;BMP180;75160;53.138;18.020;2024-03-02T00:59:54;100406.80;;;
79498;BMP180;75160;53.138;18.020;2024-03-02T01:00:56;100404.60;;;
79498;BMP180;75160;53.138;18.020;2024-03-02T01:01:59;100403.40;;;
79498;BMP180;75160;53.138;18.020;2024-03-02T01:03:00;100404.80;;;
79498;BMP180;75160;53.138;18.020;2024-03-02T01:04:03;100400.80;;;
79498;BMP180;75160;53.138;18.020;2024-03-02T01:05:05;100400.20;;;
79498;BMP180;75160;53.138;18.020;2024-03-02T01:06:08;100403.60;;;
79498;BMP180;75160;53.138;18.020;2024-03-02T01:07:10;100398.40;;;
79498;BMP180;75160;53.138;18.020;2024-03-02T01:08:12;100397.40;;;
79498;BMP180;75160;53.138;18.020;2024-03-02T01:09:13;100392.20;;;
79498;BMP180;75160;53.138;18.020;2024-03-02T01:10:15;100395.20;;;
79498;BMP180;75160;53.138;18.020;2024-03-02T01:11:17;100393.00;;;
79498;BMP180;75160;53.138;18.020;2024-03-02T01:12:20;100390.00;;;
79498;BMP180;75160;53.138;18.020;2024-03-02T01:13:22;100384.80;;;
79498;BMP180;75160;53.138;18.020;2024-03-02T01:14:25;100384.00;;;
79498;BMP180;75160;53.138;18.020;2024-03-02T01:15:27;100382.60;;;
79498;BMP180;75160;53.138;18.020;2024-03-02T01:16:28;100380.40;;;
79498;BMP180;75160;53.138;18.020;2024-03-02T01:17:30;100378.40;;;
79498;BMP180;75160;53.138;18.020;2024-03-02T01:18:32;100377.20;;;
79498;BMP180;75160;53.138;18.020;2024-03-02T01:19:34;100380.60;;;
79498;BMP180;75160;53.138;18.020;2024-03-02T01:20:36;100382.80;;;
79498;BMP180;75160;53.138;18.020;2024-03-02T01:21:37;100378.20;;;
79498;BMP180;75160;53.138;18.020;2024-03-02T01:22:39;100374.20;;;
79498;BMP180;75160;53.138;18.020;2024-03-02T01:23:41;100379.00;;;
79498;BMP180;75160;53.138;18.020;2024-03-02T01:24:43;100377.80;;;
79498;BMP180;75160;53.138;18.020;2024-03-02T01:25:48;100381.00;;;
79498;BMP180;75160;53.138;18.020;2024-03-02T01:26:51;100378.40;;;
79498;BMP180;75160;53.138;18.020;2024-03-02T01:27:52;100378.60;;;
79498;BMP180;75160;53.138;18.020;2024-03-02T01:28:54;100374.40;;;
79498;BMP180;75160;53.138;18.020;2024-03-02T01:29:56;100374.20;;;
79498;BMP180;75160;53.138;18.020;2024-03-02T01:30:58;100369.00;;;
79498;BMP180;75160;53.138;18.020;2024-03-02T01:31:59;100369.00;;;
79498;BMP180;75160;53.138;18.020;2024-03-02T01:33:01;100366.00;;;
79498;BMP180;75160;53.138;18.020;2024-03-02T01:34:03;100362.00;;;
79498;BMP180;75160;53.138;18.020;2024-03-02T01:35:06;100360.00;;;
79498;BMP180;75160;53.138;18.020;2024-03-02T01:36:09;100355.20;;;
79498;BMP180;75160;53.138;18.020;2024-03-02T01:37:11;100358.00;;;
79498;BMP180;75160;53.138;18.020;2024-03-02T01:38:13;100350.40;;;
79498;BMP180;75160;53.138;18.020;2024-03-02T01:39:15;100357.40;;;
79498;BMP180;75160;53.138;18.020;2024-03-02T01:40:18;100354.40;;;
79498;BMP180;75160;53.138;18.020;2024-03-02T01:41:21;100351.20;;;
79498;BMP180;75160;53.138;18.020;2024-03-02T01:42:22;100355.00;;;
79498;BMP180;75160;53.138;18.020;2024-03-02T01:43:24;100351.40;;;
79498;BMP180;75160;53.138;18.020;2024-03-02T01:44:30;100350.80;;;
79498;BMP180;75160;53.138;18.020;2024-03-02T01:45:32;100346.00;;;
79498;BMP180;75160;53.138;18.020;2024-03-02T01:46:33;100351.40;;;
79498;BMP180;75160;53.138;18.020;2024-03-02T01:47:36;100354.00;;;
79498;BMP180;75160;53.138;18.020;2024-03-02T01:48:38;100354.80;;;
79498;BMP180;75160;53.138;18.020;2024-03-02T01:49:40;100351.00;;;
79498;BMP180;75160;53.138;18.020;2024-03-02T01:50:43;100352.60;;;
79498;BMP180;75160;53.138;18.020;2024-03-02T01:51:44;100357.00;;;
79498;BMP180;75160;53.138;18.020;2024-03-02T01:52:46;100358.60;;;
79498;BMP180;75160;53.138;18.020;2024-03-02T01:53:48;100358.00;;;
79498;BMP180;75160;53.138;18.020;2024-03-02T01:54:50;100353.00;;;
79498;BMP180;75160;53.138;18.020;2024-03-02T01:55:52;100354.80;;;
79498;BMP180;75160;53.138;18.020;2024-03-02T01:56:53;100355.80;;;
79498;BMP180;75160;53.138;18.020;2024-03-02T01:57:55;100354.80;;;
79498;BMP180;75160;53.138;18.020;2024-03-02T01:58:57;100351.60;;;
79498;BMP180;75160;53.138;18.020;2024-03-02T02:00:00;100350.40;;;
79498;BMP180;75160;53.138;18.020;2024-03-02T02:01:02;100347.60;;;
79498;BMP180;75160;53.138;18.020;2024-03-02T02:02:04;100348.80;;;
79498;BMP180;75160;53.138;18.020;2024-03-02T02:03:06;100348.00;;;
79498;BMP180;75160;53.138;18.020;2024-03-02T02:04:08;100349.00;;;
79498;BMP180;75160;53.138;18.020;2024-03-02T02:05:10;100346.20;;;
79498;BMP180;75160;53.138;18.020;2024-03-02T02:06:12;100345.00;;;
79498;BMP180;75160;53.138;18.020;2024-03-02T02:07:14;100348.00;;;
79498;BMP180;75160;53.138;18.020;2024-03-02T02:08:17;100346.00;;;
79498;BMP180;75160;53.138;18.020;2024-03-02T02:09:18;100342.80;;;
79498;BMP180;75160;53.138;18.020;2024-03-02T02:10:20;100345.40;;;
79498;BMP180;75160;53.138;18.020;2024-03-02T02:11:23;100345.00;;;
79498;BMP180;75160;53.138;18.020;2024-03-02T02:12:25;100342.40;;;
79498;BMP180;75160;53.138;18.020;2024-03-02T02:13:26;100341.00;;;
79498;BMP180;75160;53.138;18.020;2024-03-02T02:14:28;100344.00;;;
79498;BMP180;75160;53.138;18.020;2024-03-02T02:15:31;100339.80;;;
79498;BMP180;75160;53.138;18.020;2024-03-02T02:16:33;100342.60;;;
79498;BMP180;75160;53.138;18.020;2024-03-02T02:17:35;100335.60;;;
79498;BMP180;75160;53.138;18.020;2024-03-02T02:18:37;100332.80;;;
79498;BMP180;75160;53.138;18.020;2024-03-02T02:19:41;100338.00;;;
79498;BMP180;75160;53.138;18.020;2024-03-02T02:20:43;100338.20;;;
79498;BMP180;75160;53.138;18.020;2024-03-02T02:21:45;100347.00;;;
79498;BMP180;75160;53.138;18.020;2024-03-02T02:23:03;100345.80;;;
79498;BMP180;75160;53.138;18.020;2024-03-02T02:24:05;100347.40;;;
79498;BMP180;75160;53.138;18.020;2024-03-02T02:25:10;100345.00;;;
79498;BMP180;75160;53.138;18.020;2024-03-02T02:26:12;100348.40;;;
79498;BMP180;75160;53.138;18.020;2024-03-02T02:27:14;100345.20;;;
79498;BMP180;75160;53.138;18.020;2024-03-02T02:28:16;100349.40;;;
79498;BMP180;75160;53.138;18.020;2024-03-02T02:29:18;100353.20;;;
79498;BMP180;75160;53.138;18.020;2024-03-02T02:30:26;100351.00;;;
79498;BMP180;75160;53.138;18.020;2024-03-02T02:31:40;100345.20;;;
79498;BMP180;75160;53.138;18.020;2024-03-02T02:32:42;100346.20;;;
79498;BMP180;75160;53.138;18.020;2024-03-02T02:33:44;100349.20;;;
79498;BMP180;75160;53.138;18.020;2024-03-02T02:34:45;100351.60;;;
79498;BMP180;75160;53.138;18.020;2024-03-02T02:35:47;100347.00;;;
79498;BMP180;75160;53.138;18.020;2024-03-02T02:36:50;100346.60;;;
79498;BMP180;75160;53.138;18.020;2024-03-02T02:37:54;100342.00;;;
79498;BMP180;75160;53.138;18.020;2024-03-02T02:38:57;100343.80;;;
79498;BMP180;75160;53.138;18.020;2024-03-02T02:40:00;100342.00;;;
79498;BMP180;75160;53.138;18.020;2024-03-02T02:41:02;100346.40;;;
79498;BMP180;75160;53.138;18.020;2024-03-02T02:42:05;100341.80;;;
79498;BMP180;75160;53.138;18.020;2024-03-02T02:43:07;100344.00;;;
79498;BMP180;75160;53.138;18.020;2024-03-02T02:44:09;100341.20;;;
79498;BMP180;75160;53.138;18.020;2024-03-02T02:45:14;100340.00;;;
79498;BMP180;75160;53.138;18.020;2024-03-02T02:46:16;100341.80;;;
79498;BMP180;75160;53.138;18.020;2024-03-02T02:47:18;100338.20;;;
79498;BMP180;75160;53.138;18.020;2024-03-02T02:48:20;100341.00;;;
79498;BMP180;75160;53.138;18.020;2024-03-02T02:49:21;100338.00;;;
79498;BMP180;75160;53.138;18.020;2024-03-02T02:50:24;100343.40;;;
79498;BMP180;75160;53.138;18.020;2024-03-02T02:51:25;100342.00;;;
79498;BMP180;75160;53.138;18.020;2024-03-02T02:52:35;100340.60;;;
79498;BMP180;75160;53.138;18.020;2024-03-02T02:53:38;100336.60;;;
79498;BMP180;75160;53.138;18.020;2024-03-02T02:54:42;100341.40;;;
79498;BMP180;75160;53.138;18.020;2024-03-02T02:55:43;100340.00;;;
79498;BMP180;75160;53.138;18.020;2024-03-02T02:56:45;100340.40;;;
79498;BMP180;75160;53.138;18.020;2024-03-02T02:57:47;100342.80;;;
79498;BMP180;75160;53.138;18.020;2024-03-02T02:58:49;100338.40;;;
79498;BMP180;75160;53.138;18.020;2024-03-02T02:59:51;100342.00;;;
79498;BMP180;75160;53.138;18.020;2024-03-02T03:00:52;100338.00;;;
79498;BMP180;75160;53.138;18.020;2024-03-02T03:01:56;100336.60;;;
79498;BMP180;75160;53.138;18.020;2024-03-02T03:02:58;100337.00;;;
79498;BMP180;75160;53.138;18.020;2024-03-02T03:03:59;100334.40;;;
79498;BMP180;75160;53.138;18.020;2024-03-02T03:05:01;100340.00;;;
79498;BMP180;75160;53.138;18.020;2024-03-02T03:06:03;100341.00;;;
79498;BMP180;75160;53.138;18.020;2024-03-02T03:07:05;100338.60;;;
79498;BMP180;75160;53.138;18.020;2024-03-02T03:08:07;100339.40;;;
79498;BMP180;75160;53.138;18.020;2024-03-02T03:09:08;100339.20;;;
79498;BMP180;75160;53.138;18.020;2024-03-02T03:10:12;100340.20;;;
79498;BMP180;75160;53.138;18.020;2024-03-02T03:11:14;100335.80;;;
79498;BMP180;75160;53.138;18.020;2024-03-02T03:12:16;100334.40;;;
79498;BMP180;75160;53.138;18.020;2024-03-02T03:13:18;100337.00;;;
79498;BMP180;75160;53.138;18.020;2024-03-02T03:14:20;100335.40;;;
79498;BMP180;75160;53.138;18.020;2024-03-02T03:15:21;100336.60;;;
79498;BMP180;75160;53.138;18.020;2024-03-02T03:16:23;100336.20;;;
79498;BMP180;75160;53.138;18.020;2024-03-02T03:17:26;100337.40;;;
79498;BMP180;75160;53.138;18.020;2024-03-02T03:18:29;100338.20;;;
79498;BMP180;75160;53.138;18.020;2024-03-02T03:19:31;100343.80;;;
79498;BMP180;75160;53.138;18.020;2024-03-02T03:20:33;100344.20;;;
79498;BMP180;75160;53.138;18.020;2024-03-02T03:21:35;100343.00;;;
79498;BMP180;75160;53.138;18.020;2024-03-02T03:22:38;100342.20;;;
79498;BMP180;75160;53.138;18.020;2024-03-02T03:23:40;100337.00;;;
79498;BMP180;75160;53.138;18.020;2024-03-02T03:24:42;100343.00;;;
79498;BMP180;75160;53.138;18.020;2024-03-02T03:25:44;100344.60;;;
79498;BMP180;75160;53.138;18.020;2024-03-02T03:26:46;100345.40;;;
79498;BMP180;75160;53.138;18.020;2024-03-02T03:27:47;100346.40;;;
79498;BMP180;75160;53.138;18.020;2024-03-02T03:28:49;100338.60;;;
79498;BMP180;75160;53.138;18.020;2024-03-02T03:29:51;100342.40;;;
79498;BMP180;75160;53.138;18.020;2024-03-02T03:30:53;100336.20;;;
79498;BMP180;75160;53.138;18.020;2024-03-02T03:31:56;100331.20;;;
79498;BMP180;75160;53.138;18.020;2024-03-02T03:32:58;100333.80;;;
79498;BMP180;75160;53.138;18.020;2024-03-02T03:34:00;100340.60;;;
79498;BMP180;75160;53.138;18.020;2024-03-02T03:35:02;100337.60;;;
79498;BMP180;75160;53.138;18.020;2024-03-02T03:36:04;100338.20;;;
79498;BMP180;75160;53.138;18.020;2024-03-02T03:37:06;100337.20;;;
79498;BMP180;75160;53.138;18.020;2024-03-02T03:38:07;100337.60;;;
79498;BMP180;75160;53.138;18.020;2024-03-02T03:39:09;100330.40;;;
79498;BMP180;75160;53.138;18.020;2024-03-02T03:40:11;100329.40;;;
79498;BMP180;75160;53.138;18.020;2024-03-02T03:41:13;100332.40;;;
79498;BMP180;75160;53.138;18.020;2024-03-02T03:42:14;100333.80;;;
79498;BMP180;75160;53.138;18.020;2024-03-02T03:43:16;100337.40;;;
79498;BMP180;75160;53.138;18.020;2024-03-02T03:44:18;100335.20;;;
79498;BMP180;75160;53.138;18.020;2024-03-02T03:45:20;100329.40;;;
79498;BMP180;75160;53.138;18.020;2024-03-02T03:46:22;100327.60;;;
79498;BMP180;75160;53.138;18.020;2024-03-02T03:47:24;100323.80;;;
79498;BMP180;75160;53.138;18.020;2024-03-02T03:48:26;100327.40;;;
79498;BMP180;75160;53.138;18.020;2024-03-02T03:49:32;100328.00;;;
79498;BMP180;75160;53.138;18.020;2024-03-02T03:50:33;100322.20;;;
79498;BMP180;75160;53.138;18.020;2024-03-02T03:51:35;100327.00;;;
79498;BMP180;75160;53.138;18.020;2024-03-02T03:52:38;100327.80;;;
79498;BMP180;75160;53.138;18.020;2024-03-02T03:53:40;100326.60;;;
79498;BMP180;75160;53.138;18.020;2024-03-02T03:54:42;100321.20;;;
79498;BMP180;75160;53.138;18.020;2024-03-02T03:55:44;100325.60;;;
79498;BMP180;75160;53.138;18.020;2024-03-02T03:56:48;100325.60;;;
79498;BMP180;75160;53.138;18.020;2024-03-02T03:57:50;100330.40;;;
79498;BMP180;75160;53.138;18.020;2024-03-02T03:58:52;100323.20;;;
79498;BMP180;75160;53.138;18.020;2024-03-02T03:59:54;100326.40;;;
79498;BMP180;75160;53.138;18.020;2024-03-02T04:00:55;100330.80;;;
79498;BMP180;75160;53.138;18.020;2024-03-02T04:01:58;100328.20;;;
79498;BMP180;75160;53.138;18.020;2024-03-02T04:03:00;100327.60;;;
79498;BMP180;75160;53.138;18.020;2024-03-02T04:04:02;100327.60;;;
79498;BMP180;75160;53.138;18.020;2024-03-02T04:05:05;100320.60;;;
79498;BMP180;75160;53.138;18.020;2024-03-02T04:06:10;100317.60;;;
79498;BMP180;75160;53.138;18.020;2024-03-02T04:07:12;100319.20;;;
79498;BMP180;75160;53.138;18.020;2024-03-02T04:08:14;100315.40;;;
79498;BMP180;75160;53.138;18.020;2024-03-02T04:09:15;100319.40;;;
79498;BMP180;75160;53.138;18.020;2024-03-02T04:10:17;100316.00;;;
79498;BMP180;75160;53.138;18.020;2024-03-02T04:11:19;100309.00;;;
79498;BMP180;75160;53.138;18.020;2024-03-02T04:12:21;100312.40;;;
79498;BMP180;75160;53.138;18.020;2024-03-02T04:13:23;100313.60;;;
79498;BMP180;75160;53.138;18.020;2024-03-02T04:14:25;100310.60;;;
79498;BMP180;75160;53.138;18.020;2024-03-02T04:15:28;100309.40;;;
79498;BMP180;75160;53.138;18.020;2024-03-02T04:16:30;100317.80;;;
79498;BMP180;75160;53.138;18.020;2024-03-02T04:17:33;100314.40;;;
79498;BMP180;75160;53.138;18.020;2024-03-02T04:18:35;100316.60;;;
79498;BMP180;75160;53.138;18.020;2024-03-02T04:19:37;100311.40;;;
79498;BMP180;75160;53.138;18.020;2024-03-02T04:20:38;100312.40;;;
79498;BMP180;75160;53.138;18.020;2024-03-02T04:21:40;100315.80;;;
79498;BMP180;75160;53.138;18.020;2024-03-02T04:22:42;100319.80;;;
79498;BMP180;75160;53.138;18.020;2024-03-02T04:23:44;100318.00;;;
79498;BMP180;75160;53.138;18.020;2024-03-02T04:24:45;100311.40;;;
79498;BMP180;75160;53.138;18.020;2024-03-02T04:25:47;100309.40;;;
79498;BMP180;75160;53.138;18.020;2024-03-02T04:26:49;100308.80;;;
79498;BMP180;75160;53.138;18.020;2024-03-02T04:27:51;100307.00;;;
79498;BMP180;75160;53.138;18.020;2024-03-02T04:28:53;100309.00;;;
79498;BMP180;75160;53.138;18.020;2024-03-02T04:29:55;100309.00;;;
79498;BMP180;75160;53.138;18.020;2024-03-02T04:31:00;100307.00;;;
79498;BMP180;75160;53.138;18.020;2024-03-02T04:32:01;100300.40;;;
79498;BMP180;75160;53.138;18.020;2024-03-02T04:33:04;100300.60;;;
79498;BMP180;75160;53.138;18.020;2024-03-02T04:34:07;100303.20;;;
79498;BMP180;75160;53.138;18.020;2024-03-02T04:35:09;100308.60;;;
79498;BMP180;75160;53.138;18.020;2024-03-02T04:36:11;100304.20;;;
79498;BMP180;75160;53.138;18.020;2024-03-02T04:37:13;100302.80;;;
79498;BMP180;75160;53.138;18.020;2024-03-02T04:38:16;100304.00;;;
79498;BMP180;75160;53.138;18.020;2024-03-02T04:39:20;100305.00;;;
79498;BMP180;75160;53.138;18.020;2024-03-02T04:40:21;100304.00;;;
79498;BMP180;75160;53.138;18.020;2024-03-02T04:41:23;100306.80;;;
79498;BMP180;75160;53.138;18.020;2024-03-02T04:42:25;100306.20;;;
79498;BMP180;75160;53.138;18.020;2024-03-02T04:43:27;100303.80;;;
79498;BMP180;75160;53.138;18.020;2024-03-02T04:44:31;100304.80;;;
79498;BMP180;75160;53.138;18.020;2024-03-02T04:45:33;100307.00;;;
79498;BMP180;75160;53.138;18.020;2024-03-02T04:46:34;100314.60;;;
79498;BMP180;75160;53.138;18.020;2024-03-02T04:47:36;100320.20;;;
79498;BMP180;75160;53.138;18.020;2024-03-02T04:48:38;100319.00;;;
79498;BMP180;75160;53.138;18.020;2024-03-02T04:49:39;100315.00;;;
79498;BMP180;75160;53.138;18.020;2024-03-02T04:50:41;100303.40;;;
79498;BMP180;75160;53.138;18.020;2024-03-02T04:51:43;100316.40;;;
79498;BMP180;75160;53.138;18.020;2024-03-02T04:52:45;100318.60;;;
79498;BMP180;75160;53.138;18.020;2024-03-02T04:53:46;100326.20;;;
79498;BMP180;75160;53.138;18.020;2024-03-02T04:54:48;100324.60;;;
79498;BMP180;75160;53.138;18.020;2024-03-02T04:56:08;100323.60;;;
79498;BMP180;75160;53.138;18.020;2024-03-02T04:57:30;100328.60;;;
79498;BMP180;75160;53.138;18.020;2024-03-02T04:58:31;100335.20;;;
79498;BMP180;75160;53.138;18.020;2024-03-02T04:59:33;100340.40;;;
79498;BMP180;75160;53.138;18.020;2024-03-02T05:00:35;100331.80;;;
79498;BMP180;75160;53.138;18.020;2024-03-02T05:01:37;100327.40;;;
79498;BMP180;75160;53.138;18.020;2024-03-02T05:02:39;100336.20;;;
79498;BMP180;75160;53.138;18.020;2024-03-02T05:03:41;100339.60;;;
79498;BMP180;75160;53.138;18.020;2024-03-02T05:04:43;100342.00;;;
79498;BMP180;75160;53.138;18.020;2024-03-02T05:05:45;100345.40;;;
79498;BMP180;75160;53.138;18.020;2024-03-02T05:06:46;100338.40;;;
79498;BMP180;75160;53.138;18.020;2024-03-02T05:07:54;100338.60;;;
79498;BMP180;75160;53.138;18.020;2024-03-02T05:08:55;100343.80;;;
79498;BMP180;75160;53.138;18.020;2024-03-02T05:09:58;100346.60;;;
79498;BMP180;75160;53.138;18.020;2024-03-02T05:11:00;100350.60;;;
79498;BMP180;75160;53.138;18.020;2024-03-02T05:12:22;100350.60;;;
79498;BMP180;75160;53.138;18.020;2024-03-02T05:14:03;100343.80;;;
79498;BMP180;75160;53.138;18.020;2024-03-02T05:15:06;100346.20;;;
79498;BMP180;75160;53.138;18.020;2024-03-02T05:16:09;100340.40;;;
79498;BMP180;75160;53.138;18.020;2024-03-02T05:17:10;100351.20;;;
79498;BMP180;75160;53.138;18.020;2024-03-02T05:18:12;100356.00;;;
79498;BMP180;75160;53.138;18.020;2024-03-02T05:19:14;100350.60;;;
79498;BMP180;75160;53.138;18.020;2024-03-02T05:20:16;100353.80;;;
79498;BMP180;75160;53.138;18.020;2024-03-02T05:21:18;100356.40;;;
79498;BMP180;75160;53.138;18.020;2024-03-02T05:22:20;100356.80;;;
79498;BMP180;75160;53.138;18.020;2024-03-02T05:23:22;100353.20;;;
79498;BMP180;75160;53.138;18.020;2024-03-02T05:24:23;100354.40;;;
79498;BMP180;75160;53.138;18.020;2024-03-02T05:25:25;100359.20;;;
79498;BMP180;75160;53.138;18.020;2024-03-02T05:26:27;100355.20;;;
79498;BMP180;75160;53.138;18.020;2024-03-02T05:27:29;100359.60;;;
79498;BMP180;75160;53.138;18.020;2024-03-02T05:28:31;100354.40;;;
79498;BMP180;75160;53.138;18.020;2024-03-02T05:29:33;100347.00;;;
79498;BMP180;75160;53.138;18.020;2024-03-02T05:30:34;100348.00;;;
79498;BMP180;75160;53.138;18.020;2024-03-02T05:31:37;100349.40;;;
79498;BMP180;75160;53.138;18.020;2024-03-02T05:32:39;100353.80;;;
79498;BMP180;75160;53.138;18.020;2024-03-02T05:33:41;100353.80;;;
79498;BMP180;75160;53.138;18.020;2024-03-02T05:34:43;100351.00;;;
79498;BMP180;75160;53.138;18.020;2024-03-02T05:35:44;100361.80;;;
79498;BMP180;75160;53.138;18.020;2024-03-02T05:36:46;100364.20;;;
79498;BMP180;75160;53.138;18.020;2024-03-02T05:37:48;100359.00;;;
79498;BMP180;75160;53.138;18.020;2024-03-02T05:38:50;100358.80;;;
79498;BMP180;75160;53.138;18.020;2024-03-02T05:39:52;100356.00;;;
79498;BMP180;75160;53.138;18.020;2024-03-02T05:40:53;100357.00;;;
79498;BMP180;75160;53.138;18.020;2024-03-02T05:41:55;100355.60;;;
79498;BMP180;75160;53.138;18.020;2024-03-02T05:42:57;100357.80;;;
79498;BMP180;75160;53.138;18.020;2024-03-02T05:43:59;100358.60;;;
79498;BMP180;75160;53.138;18.020;2024-03-02T05:45:02;100359.40;;;
79498;BMP180;75160;53.138;18.020;2024-03-02T05:46:04;100367.80;;;
79498;BMP180;75160;53.138;18.020;2024-03-02T05:47:06;100367.80;;;
79498;BMP180;75160;53.138;18.020;2024-03-02T05:48:10;100374.00;;;
79498;BMP180;75160;53.138;18.020;2024-03-02T05:49:12;100372.40;;;
79498;BMP180;75160;53.138;18.020;2024-03-02T05:50:14;100365.80;;;
79498;BMP180;75160;53.138;18.020;2024-03-02T05:51:16;100370.60;;;
79498;BMP180;75160;53.138;18.020;2024-03-02T05:52:18;100373.20;;;
79498;BMP180;75160;53.138;18.020;2024-03-02T05:53:22;100374.80;;;
79498;BMP180;75160;53.138;18.020;2024-03-02T05:54:24;100369.20;;;
79498;BMP180;75160;53.138;18.020;2024-03-02T05:55:25;100371.20;;;
79498;BMP180;75160;53.138;18.020;2024-03-02T05:56:27;100383.60;;;
79498;BMP180;75160;53.138;18.020;2024-03-02T05:57:29;100383.80;;;
79498;BMP180;75160;53.138;18.020;2024-03-02T05:58:46;100377.00;;;
79498;BMP180;75160;53.138;18.020;2024-03-02T06:00:07;100381.80;;;
79498;BMP180;75160;53.138;18.020;2024-03-02T06:01:09;100376.80;;;
79498;BMP180;75160;53.138;18.020;2024-03-02T06:02:11;100381.80;;;
79498;BMP180;75160;53.138;18.020;2024-03-02T06:03:13;100384.20;;;
79498;BMP180;75160;53.138;18.020;2024-03-02T06:04:15;100386.20;;;
79498;BMP180;75160;53.138;18.020;2024-03-02T06:05:17;100390.80;;;
79498;BMP180;75160;53.138;18.020;2024-03-02T06:06:21;100388.40;;;
79498;BMP180;75160;53.138;18.020;2024-03-02T06:07:23;100390.00;;;
79498;BMP180;75160;53.138;18.020;2024-03-02T06:08:24;100388.40;;;
79498;BMP180;75160;53.138;18.020;2024-03-02T06:09:26;100390.00;;;
79498;BMP180;75160;53.138;18.020;2024-03-02T06:10:28;100395.40;;;
79498;BMP180;75160;53.138;18.020;2024-03-02T06:11:30;100391.60;;;
79498;BMP180;75160;53.138;18.020;2024-03-02T06:12:31;100391.80;;;
79498;BMP180;75160;53.138;18.020;2024-03-02T06:13:34;100388.40;;;
79498;BMP180;75160;53.138;18.020;2024-03-02T06:14:36;100392.40;;;
79498;BMP180;75160;53.138;18.020;2024-03-02T06:15:38;100392.80;;;
79498;BMP180;75160;53.138;18.020;2024-03-02T06:16:39;100394.80;;;
79498;BMP180;75160;53.138;18.020;2024-03-02T06:17:41;100397.40;;;
79498;BMP180;75160;53.138;18.020;2024-03-02T06:18:43;100396.20;;;
79498;BMP180;75160;53.138;18.020;2024-03-02T06:19:45;100391.40;;;
79498;BMP180;75160;53.138;18.020;2024-03-02T06:20:48;100391.00;;;